createdAt,value
2019-03-21T00:01:37.406Z,100.47
2019-03-21T00:04:13.686Z,93.83
2019-03-21T00:06:44.791Z,89.73
2019-03-21T00:09:17.607Z,101.40
2019-03-21T00:11:59.487Z,93.40
2019-03-21T00:14:54.370Z,100.30
2019-03-21T00:17:28.561Z,94.70
2019-03-21T00:19:59.629Z,97.93
2019-03-21T00:22:30.689Z,96.80
2019-03-21T00:25:01.898Z,97.33
2019-03-21T00:27:33.285Z,102.00
2019-03-21T00:30:05.068Z,95.67
2019-03-21T00:32:36.131Z,86.20
2019-03-21T00:35:07.867Z,94.67
2019-03-21T00:37:38.878Z,86.33
2019-03-21T00:40:12.946Z,89.57
2019-03-21T00:42:44.010Z,94.70
2019-03-21T00:45:16.144Z,102.70
2019-03-21T00:47:47.346Z,105.90
2019-03-21T00:50:19.795Z,83.13
2019-03-21T00:52:52.575Z,94.83
2019-03-21T00:55:24.740Z,80.43
2019-03-21T00:57:58.432Z,92.00
2019-03-21T01:00:38.177Z,84.37
2019-03-21T01:03:09.963Z,76.30
2019-03-21T01:05:41.114Z,71.47
2019-03-21T01:08:13.225Z,79.10
2019-03-21T01:10:44.232Z,84.23
2019-03-21T01:13:15.795Z,78.23
2019-03-21T01:15:46.782Z,78.03
2019-03-21T01:18:17.793Z,72.93
2019-03-21T01:20:48.804Z,55.70
2019-03-21T01:23:19.869Z,58.13
2019-03-21T01:25:52.201Z,60.10
2019-03-21T01:28:23.229Z,64.97
2019-03-21T01:30:54.294Z,73.03
2019-03-21T01:33:25.423Z,73.77
2019-03-21T01:35:56.465Z,78.77
2019-03-21T01:38:27.472Z,77.27
2019-03-21T01:40:58.536Z,80.87
2019-03-21T01:43:29.584Z,78.57
2019-03-21T01:46:00.608Z,81.47
2019-03-21T01:48:31.757Z,69.10
2019-03-21T01:51:02.806Z,82.30
2019-03-21T01:53:33.885Z,85.07
2019-03-21T01:56:04.917Z,80.50
2019-03-21T01:58:36.991Z,79.37
2019-03-21T02:01:08.959Z,82.53
2019-03-21T02:03:40.122Z,79.77
2019-03-21T02:06:11.139Z,73.67
2019-03-21T02:08:42.207Z,76.17
2019-03-21T02:11:14.325Z,75.70
2019-03-21T02:13:45.433Z,71.77
2019-03-21T02:16:16.666Z,72.20
2019-03-21T02:18:47.751Z,67.43
2019-03-21T02:21:18.859Z,72.17
2019-03-21T02:23:50.008Z,69.83
2019-03-21T02:26:21.023Z,67.87
2019-03-21T02:28:51.985Z,68.77
2019-03-21T02:31:22.966Z,71.87
2019-03-21T02:33:53.995Z,68.87
2019-03-21T02:36:25.038Z,67.43
2019-03-21T02:38:56.043Z,63.60
2019-03-21T02:41:27.132Z,68.80
2019-03-21T02:43:58.173Z,72.37
2019-03-21T02:46:29.213Z,70.80
2019-03-21T02:49:00.280Z,71.40
2019-03-21T02:51:31.336Z,78.40
2019-03-21T02:54:02.410Z,81.33
2019-03-21T02:56:33.501Z,76.27
2019-03-21T02:59:04.792Z,71.20
2019-03-21T03:01:35.824Z,72.30
2019-03-21T03:04:06.783Z,75.17
2019-03-21T03:06:37.792Z,76.80
2019-03-21T03:09:09.691Z,80.67
2019-03-21T03:11:40.667Z,79.80
2019-03-21T03:14:11.845Z,80.07
2019-03-21T03:16:42.965Z,69.43
2019-03-21T03:19:14.075Z,68.43
2019-03-21T03:21:45.135Z,86.70
2019-03-21T03:24:16.196Z,75.50
2019-03-21T03:26:47.314Z,61.63
2019-03-21T03:29:18.346Z,73.60
2019-03-21T03:31:49.401Z,61.90
2019-03-21T03:34:20.521Z,55.40
2019-03-21T03:36:52.223Z,54.17
2019-03-21T03:39:23.325Z,58.57
2019-03-21T03:41:54.450Z,58.93
2019-03-21T03:44:25.553Z,64.80
2019-03-21T03:46:56.649Z,62.20
2019-03-21T03:49:27.722Z,69.93
2019-03-21T03:51:58.816Z,68.20
2019-03-21T03:54:29.849Z,80.40
2019-03-21T03:57:00.910Z,66.43
2019-03-21T03:59:31.864Z,67.20
2019-03-21T04:02:02.927Z,67.53
2019-03-21T04:04:34.127Z,71.30
2019-03-21T04:07:05.183Z,63.40
2019-03-21T04:09:36.197Z,76.57
2019-03-21T04:12:07.514Z,71.23
2019-03-21T04:14:38.481Z,66.83
2019-03-21T04:17:09.513Z,70.00
2019-03-21T04:19:40.473Z,72.90
2019-03-21T04:22:11.464Z,72.30
2019-03-21T04:24:42.591Z,76.10
2019-03-21T04:27:13.664Z,70.33
2019-03-21T04:29:44.656Z,72.40
2019-03-21T04:32:15.684Z,75.93
2019-03-21T04:34:46.710Z,73.97
2019-03-21T04:37:17.751Z,65.07
2019-03-21T04:39:48.799Z,69.67
2019-03-21T04:42:19.864Z,65.57
2019-03-21T04:44:50.873Z,68.10
2019-03-21T04:47:21.875Z,68.17
2019-03-21T04:49:52.887Z,73.33
2019-03-21T04:52:23.957Z,67.80
2019-03-21T04:54:55.017Z,71.10
2019-03-21T04:57:26.073Z,72.13
2019-03-21T04:59:57.111Z,79.10
2019-03-21T05:02:28.192Z,71.07
2019-03-21T05:04:59.251Z,76.80
2019-03-21T05:07:32.029Z,81.37
2019-03-21T05:10:03.094Z,76.17
2019-03-21T05:12:35.265Z,74.40
2019-03-21T05:15:08.151Z,78.70
2019-03-21T05:17:39.195Z,76.60
2019-03-21T05:20:14.304Z,90.30
2019-03-21T05:22:46.094Z,85.27
2019-03-21T05:25:17.116Z,92.13
2019-03-21T05:27:48.261Z,85.83
2019-03-21T05:30:22.653Z,87.10
2019-03-21T05:32:53.781Z,94.63
2019-03-21T05:35:24.931Z,79.40
2019-03-21T05:37:56.062Z,91.57
2019-03-21T05:40:27.101Z,78.67
2019-03-21T05:43:04.939Z,92.60
2019-03-21T05:45:37.708Z,81.53
2019-03-21T05:48:08.745Z,81.40
2019-03-21T05:50:39.863Z,93.53
2019-03-21T05:53:11.143Z,94.20
2019-03-21T05:55:42.251Z,86.13
2019-03-21T05:58:13.375Z,94.53
2019-03-21T06:00:45.318Z,80.33
2019-03-21T06:03:19.987Z,81.00
2019-03-21T06:06:00.620Z,77.37
2019-03-21T06:08:34.215Z,82.97
2019-03-21T06:11:05.533Z,68.53
2019-03-21T06:13:36.603Z,74.63
2019-03-21T06:16:11.576Z,71.40
2019-03-21T06:19:09.112Z,72.30
2019-03-21T06:22:11.353Z,65.30
2019-03-21T06:25:18.897Z,71.33
2019-03-21T06:27:50.140Z,68.70
2019-03-21T06:30:22.406Z,78.63
2019-03-21T06:32:53.606Z,70.83
2019-03-21T06:35:24.762Z,71.43
2019-03-21T06:37:55.812Z,71.00
2019-03-21T06:40:26.990Z,76.07
2019-03-21T06:42:58.332Z,67.50
2019-03-21T06:45:29.660Z,75.43
2019-03-21T06:48:00.697Z,73.30
2019-03-21T06:50:31.876Z,63.90
2019-03-21T06:53:03.396Z,70.70
2019-03-21T06:55:34.489Z,66.97
2019-03-21T06:58:05.811Z,70.97
2019-03-21T07:00:36.806Z,72.03
2019-03-21T07:03:07.882Z,70.00
2019-03-21T07:05:38.948Z,70.97
2019-03-21T07:08:10.068Z,73.70
2019-03-21T07:10:41.100Z,72.70
2019-03-21T07:13:12.281Z,67.03
2019-03-21T07:15:43.429Z,74.40
2019-03-21T07:18:14.547Z,70.50
2019-03-21T07:20:45.611Z,62.77
2019-03-21T07:23:16.675Z,69.50
2019-03-21T07:25:47.786Z,68.57
2019-03-21T07:28:18.832Z,69.83
2019-03-21T07:30:49.898Z,59.57
2019-03-21T07:33:20.938Z,64.07
2019-03-21T07:35:51.980Z,57.23
2019-03-21T07:38:23.131Z,56.20
2019-03-21T07:40:54.200Z,62.17
2019-03-21T07:43:25.237Z,54.03
2019-03-21T07:45:56.399Z,57.17
2019-03-21T07:48:27.528Z,63.93
2019-03-21T07:50:58.721Z,71.07
2019-03-21T07:53:29.825Z,72.80
2019-03-21T07:56:00.827Z,67.67
2019-03-21T07:58:31.853Z,64.30
2019-03-21T08:01:02.933Z,75.90
2019-03-21T08:03:34.078Z,80.53
2019-03-21T08:06:05.123Z,75.73
2019-03-21T08:08:36.244Z,75.00
2019-03-21T08:11:07.530Z,88.00
2019-03-21T08:13:38.589Z,67.50
2019-03-21T08:16:09.687Z,52.97
2019-03-21T08:18:40.772Z,50.73
2019-03-21T08:21:11.897Z,54.23
2019-03-21T08:23:42.874Z,93.73
2019-03-21T08:26:13.957Z,85.23
2019-03-21T08:28:44.979Z,86.03
2019-03-21T08:31:20.421Z,81.60
2019-03-21T08:33:51.505Z,88.50
2019-03-21T08:36:22.597Z,72.40
2019-03-21T08:38:54.801Z,76.93
2019-03-21T08:41:27.343Z,84.97
2019-03-21T08:43:58.556Z,81.00
2019-03-21T08:46:29.602Z,75.83
2019-03-21T08:49:00.734Z,78.87
2019-03-21T08:51:31.868Z,85.50
2019-03-21T08:54:02.889Z,76.47
2019-03-21T08:56:33.933Z,81.73
2019-03-21T08:59:05.126Z,81.23
2019-03-21T09:01:36.250Z,68.97
2019-03-21T09:04:07.286Z,68.00
2019-03-21T09:06:38.331Z,64.63
2019-03-21T09:09:10.364Z,58.63
2019-03-21T09:11:41.420Z,50.67
2019-03-21T09:14:12.468Z,59.07
2019-03-21T09:16:43.505Z,59.90
2019-03-21T09:19:14.568Z,53.23
2019-03-21T09:21:45.574Z,49.80
2019-03-21T09:24:17.717Z,42.57
2019-03-21T09:26:48.736Z,39.73
2019-03-21T09:29:19.799Z,39.47
2019-03-21T09:31:50.830Z,41.80
2019-03-21T09:34:21.834Z,48.17
2019-03-21T09:36:52.884Z,45.53
2019-03-21T09:39:23.928Z,42.30
2019-03-21T09:41:54.951Z,46.87
2019-03-21T09:44:24.682Z,40.83
2019-03-21T09:46:55.704Z,35.50
2019-03-21T09:49:26.908Z,37.87
2019-03-21T09:51:58.037Z,34.50
2019-03-21T09:54:29.236Z,36.37
2019-03-21T09:57:00.246Z,37.63
2019-03-21T09:59:31.334Z,34.63
2019-03-21T10:02:02.328Z,36.73
2019-03-21T10:04:33.396Z,36.90
2019-03-21T10:07:04.531Z,42.07
2019-03-21T10:09:35.588Z,37.80
2019-03-21T10:12:06.705Z,40.23
2019-03-21T10:14:37.713Z,39.03
2019-03-21T10:17:08.769Z,42.23
2019-03-21T10:19:39.800Z,37.03
2019-03-21T10:22:10.804Z,33.07
2019-03-21T10:24:41.820Z,39.30
2019-03-21T10:27:12.856Z,41.20
2019-03-21T10:29:44.879Z,44.37
2019-03-21T10:32:15.925Z,46.60
2019-03-21T10:34:47.017Z,44.20
2019-03-21T10:37:18.214Z,46.57
2019-03-21T10:39:49.312Z,38.27
2019-03-21T10:42:20.461Z,46.00
2019-03-21T10:44:51.493Z,53.13
2019-03-21T10:47:23.660Z,54.33
2019-03-21T10:49:54.702Z,40.63
2019-03-21T10:52:25.782Z,42.13
2019-03-21T10:54:56.772Z,40.57
2019-03-21T10:57:27.838Z,47.73
2019-03-21T11:00:01.608Z,39.50
2019-03-21T11:02:31.652Z,41.57
2019-03-21T11:05:02.783Z,45.60
2019-03-21T11:07:33.914Z,40.57
2019-03-21T11:10:06.005Z,47.97
2019-03-21T11:12:37.083Z,43.13
2019-03-21T11:15:09.055Z,42.27
2019-03-21T11:17:40.188Z,50.30
2019-03-21T11:20:13.084Z,43.63
2019-03-21T11:22:44.258Z,53.47
2019-03-21T11:25:15.291Z,45.47
2019-03-21T11:27:46.342Z,43.37
2019-03-21T11:30:20.383Z,39.10
2019-03-21T11:32:51.410Z,46.80
2019-03-21T11:35:22.558Z,44.53
2019-03-21T11:37:53.719Z,41.70
2019-03-21T11:40:24.709Z,36.43
2019-03-21T11:42:57.218Z,35.43
2019-03-21T11:45:28.320Z,40.37
2019-03-21T11:47:59.993Z,36.27
2019-03-21T11:50:31.261Z,38.53
2019-03-21T11:53:02.319Z,40.10
2019-03-21T11:55:33.322Z,37.43
2019-03-21T11:58:04.288Z,33.50
2019-03-21T12:00:42.965Z,39.33
2019-03-21T12:03:08.066Z,34.13
2019-03-21T12:05:39.248Z,36.03
2019-03-21T12:08:10.210Z,34.87
2019-03-21T12:10:41.235Z,36.53
2019-03-21T12:13:12.378Z,43.83
2019-03-21T12:15:43.412Z,40.50
2019-03-21T12:18:14.460Z,38.47
2019-03-21T12:20:45.600Z,40.80
2019-03-21T12:23:16.665Z,38.50
2019-03-21T12:25:47.984Z,34.73
2019-03-21T12:28:19.330Z,36.50
2019-03-21T12:30:50.409Z,39.03
2019-03-21T12:33:21.410Z,33.67
2019-03-21T12:35:52.523Z,41.23
2019-03-21T12:38:23.696Z,35.53
2019-03-21T12:40:54.767Z,33.93
2019-03-21T12:43:25.915Z,36.23
2019-03-21T12:45:56.998Z,38.03
2019-03-21T12:48:28.001Z,33.97
2019-03-21T12:50:59.104Z,42.87
2019-03-21T12:53:30.192Z,34.07
2019-03-21T12:56:01.209Z,41.53
2019-03-21T12:58:32.289Z,35.40
2019-03-21T13:01:03.374Z,41.00
2019-03-21T13:03:34.385Z,38.20
2019-03-21T13:06:05.584Z,36.37
2019-03-21T13:08:36.558Z,37.93
2019-03-21T13:11:07.705Z,36.00
2019-03-21T13:13:38.779Z,38.33
2019-03-21T13:16:09.814Z,35.13
2019-03-21T13:18:40.900Z,42.93
2019-03-21T13:21:11.987Z,37.10
2019-03-21T13:23:43.194Z,38.33
2019-03-21T13:26:14.200Z,46.10
2019-03-21T13:28:45.301Z,38.27
2019-03-21T13:31:17.435Z,36.97
2019-03-21T13:33:48.508Z,42.77
2019-03-21T13:36:19.492Z,37.77
2019-03-21T13:38:50.605Z,36.20
2019-03-21T13:41:21.634Z,47.37
2019-03-21T13:43:52.714Z,48.30
2019-03-21T13:46:24.769Z,42.03
2019-03-21T13:48:55.720Z,53.50
2019-03-21T13:51:26.802Z,44.43
2019-03-21T13:53:57.858Z,53.67
2019-03-21T13:56:37.811Z,38.67
2019-03-21T13:59:01.629Z,48.73
2019-03-21T14:01:32.685Z,32.57
2019-03-21T14:04:03.820Z,34.73
2019-03-21T14:06:34.839Z,41.27
2019-03-21T14:09:07.907Z,30.30
2019-03-21T14:11:39.507Z,28.97
2019-03-21T14:14:10.524Z,26.97
2019-03-21T14:16:47.601Z,27.07
2019-03-21T14:19:18.669Z,31.53
2019-03-21T14:21:49.753Z,30.37
2019-03-21T14:24:21.054Z,26.90
2019-03-21T14:26:52.335Z,24.00
2019-03-21T14:29:23.522Z,25.97
2019-03-21T14:31:54.500Z,27.87
2019-03-21T14:34:25.636Z,25.40
2019-03-21T14:36:56.622Z,17.37
2019-03-21T14:39:27.688Z,22.40
2019-03-21T14:41:58.742Z,21.03
2019-03-21T14:44:29.873Z,23.63
2019-03-21T14:47:00.878Z,23.70
2019-03-21T14:49:31.881Z,20.07
2019-03-21T14:52:02.938Z,18.73
2019-03-21T14:54:34.028Z,20.67
2019-03-21T14:57:05.079Z,21.20
2019-03-21T14:59:36.198Z,20.77
2019-03-21T15:02:07.342Z,24.63
2019-03-21T15:04:40.103Z,23.60
2019-03-21T15:07:11.392Z,24.53
2019-03-21T15:09:42.486Z,26.13
2019-03-21T15:12:13.689Z,23.13
2019-03-21T15:14:44.769Z,24.10
2019-03-21T15:17:15.883Z,22.50
2019-03-21T15:19:46.953Z,20.07
2019-03-21T15:22:17.999Z,24.63
2019-03-21T15:24:49.042Z,20.50
2019-03-21T15:27:20.235Z,19.93
2019-03-21T15:29:51.270Z,18.40
2019-03-21T15:32:22.452Z,17.33
2019-03-21T15:34:53.467Z,17.43
2019-03-21T15:37:24.490Z,17.40
2019-03-21T15:39:55.596Z,20.90
2019-03-21T15:42:26.596Z,14.93
2019-03-21T15:45:15.764Z,20.37
2019-03-21T15:47:30.414Z,20.23
2019-03-21T15:50:01.439Z,26.37
2019-03-21T15:52:32.560Z,25.43
2019-03-21T15:55:03.628Z,23.27
2019-03-21T15:57:34.714Z,20.83
2019-03-21T16:00:06.770Z,22.93
2019-03-21T16:02:38.417Z,23.03
2019-03-21T16:05:09.701Z,20.17
2019-03-21T16:07:40.763Z,21.07
2019-03-21T16:10:11.771Z,21.67
2019-03-21T16:12:42.855Z,23.60
2019-03-21T16:15:13.855Z,25.03
2019-03-21T16:17:45.040Z,21.90
2019-03-21T16:20:16.013Z,22.77
2019-03-21T16:22:47.109Z,21.90
2019-03-21T16:25:18.217Z,25.00
2019-03-21T16:27:49.369Z,26.63
2019-03-21T16:30:20.367Z,24.17
2019-03-21T16:32:51.482Z,24.97
2019-03-21T16:35:22.584Z,24.80
2019-03-21T16:37:53.640Z,27.73
2019-03-21T16:40:24.670Z,33.47
2019-03-21T16:42:55.642Z,32.27
2019-03-21T16:45:26.637Z,31.33
2019-03-21T16:47:58.028Z,29.37
2019-03-21T16:50:29.059Z,29.83
2019-03-21T16:53:00.125Z,36.33
2019-03-21T16:55:31.209Z,37.30
2019-03-21T16:58:02.205Z,37.03
2019-03-21T17:00:33.290Z,48.27
2019-03-21T17:03:04.606Z,47.40
2019-03-21T17:05:35.700Z,60.20
2019-03-21T17:08:11.577Z,57.07
2019-03-21T17:10:39.335Z,48.60
2019-03-21T17:13:10.431Z,37.03
2019-03-21T17:15:41.460Z,39.03
2019-03-21T17:18:12.425Z,39.30
2019-03-21T17:20:43.428Z,36.10
2019-03-21T17:23:14.510Z,43.93
2019-03-21T17:25:45.641Z,38.17
2019-03-21T17:28:16.744Z,41.33
2019-03-21T17:30:47.793Z,39.67
2019-03-21T17:33:18.863Z,44.67
2019-03-21T17:35:49.932Z,38.27
2019-03-21T17:38:21.041Z,40.80
2019-03-21T17:40:52.069Z,41.70
2019-03-21T17:43:23.054Z,45.43
2019-03-21T17:45:54.069Z,39.00
2019-03-21T17:48:25.063Z,39.23
2019-03-21T17:50:56.078Z,39.20
2019-03-21T17:53:27.097Z,46.37
2019-03-21T17:55:58.193Z,49.43
2019-03-21T17:58:30.258Z,52.97
2019-03-21T18:01:01.263Z,61.83
2019-03-21T18:03:32.361Z,64.93
2019-03-21T18:06:03.321Z,69.67
2019-03-21T18:08:34.343Z,70.57
2019-03-21T18:11:05.386Z,71.27
2019-03-21T18:13:36.444Z,61.27
2019-03-21T18:16:07.508Z,60.23
2019-03-21T18:18:38.576Z,64.40
2019-03-21T18:21:09.569Z,67.23
2019-03-21T18:23:40.680Z,63.50
2019-03-21T18:26:11.771Z,68.97
2019-03-21T18:28:42.873Z,84.77
2019-03-21T18:31:13.888Z,81.87
2019-03-21T18:33:46.193Z,98.80
2019-03-21T18:36:17.243Z,89.23
2019-03-21T18:38:57.633Z,100.77
2019-03-21T18:41:20.917Z,100.73
2019-03-21T18:43:52.061Z,111.33
2019-03-21T18:46:23.145Z,111.00
2019-03-21T18:48:54.254Z,116.87
2019-03-21T18:51:25.241Z,114.97
2019-03-21T18:53:56.370Z,105.67
2019-03-21T18:56:27.363Z,113.40
2019-03-21T18:58:58.397Z,113.13
2019-03-21T19:01:29.371Z,114.70
2019-03-21T19:04:00.576Z,119.97
2019-03-21T19:06:31.659Z,136.53
2019-03-21T19:09:02.844Z,148.40
2019-03-21T19:11:35.469Z,154.30
2019-03-21T19:14:06.447Z,151.73
2019-03-21T19:16:37.641Z,147.40
2019-03-21T19:19:08.627Z,137.77
2019-03-21T19:21:40.834Z,138.97
2019-03-21T19:24:11.947Z,140.07
2019-03-21T19:26:42.999Z,145.33
2019-03-21T19:29:15.161Z,142.13
2019-03-21T19:31:46.258Z,137.87
2019-03-21T19:34:17.348Z,129.07
2019-03-21T19:36:48.428Z,122.63
2019-03-21T19:39:19.469Z,123.60
2019-03-21T19:41:50.542Z,111.67
2019-03-21T19:44:21.584Z,103.17
2019-03-21T19:46:52.624Z,96.73
2019-03-21T19:49:24.907Z,90.00
2019-03-21T19:51:55.937Z,85.30
2019-03-21T19:54:26.888Z,85.67
2019-03-21T19:56:57.960Z,104.27
2019-03-21T19:59:30.181Z,114.00
2019-03-21T20:02:01.938Z,96.30
2019-03-21T20:04:33.048Z,88.57
2019-03-21T20:07:04.178Z,76.73
2019-03-21T20:09:35.223Z,90.63
2019-03-21T20:12:06.321Z,86.97
2019-03-21T20:14:37.398Z,89.03
2019-03-21T20:17:08.447Z,130.37
2019-03-21T20:19:39.657Z,125.87
2019-03-21T20:22:10.797Z,144.23
2019-03-21T20:24:41.883Z,146.33
2019-03-21T20:27:12.965Z,142.10
2019-03-21T20:29:44.008Z,147.40
2019-03-21T20:32:20.517Z,149.97
2019-03-21T20:34:47.786Z,145.10
2019-03-21T20:37:18.763Z,136.17
2019-03-21T20:39:49.847Z,129.80
2019-03-21T20:42:20.915Z,131.87
2019-03-21T20:44:51.928Z,128.43
2019-03-21T20:47:22.998Z,126.27
2019-03-21T20:49:54.068Z,125.13
2019-03-21T20:52:25.237Z,131.07
2019-03-21T20:54:56.271Z,127.53
2019-03-21T20:57:27.370Z,132.17
2019-03-21T20:59:58.338Z,121.37
2019-03-21T21:02:29.456Z,129.33
2019-03-21T21:05:00.526Z,128.07
2019-03-21T21:07:31.726Z,131.60
2019-03-21T21:10:02.735Z,128.97
2019-03-21T21:12:34.299Z,135.27
2019-03-21T21:15:06.064Z,136.83
2019-03-21T21:17:37.065Z,135.50
2019-03-21T21:20:09.229Z,131.53
2019-03-21T21:22:41.243Z,131.03
2019-03-21T21:25:12.345Z,124.87
2019-03-21T21:27:49.634Z,133.33
2019-03-21T21:30:18.516Z,134.23
2019-03-21T21:32:49.706Z,121.87
2019-03-21T21:35:20.830Z,123.70
2019-03-21T21:37:51.947Z,121.57
2019-03-21T21:40:22.968Z,118.20
2019-03-21T21:42:54.001Z,126.13
2019-03-21T21:45:24.996Z,112.50
2019-03-21T21:47:56.068Z,111.17
2019-03-21T21:50:27.082Z,111.90
2019-03-21T21:52:58.114Z,103.73
2019-03-21T21:55:29.148Z,104.70
2019-03-21T21:58:00.255Z,103.50
2019-03-21T22:00:31.362Z,101.90
2019-03-21T22:03:02.404Z,101.03
2019-03-21T22:05:33.411Z,106.80
2019-03-21T22:08:04.527Z,106.73
2019-03-21T22:10:35.626Z,96.97
2019-03-21T22:13:06.769Z,99.20
2019-03-21T22:15:37.792Z,102.63
2019-03-21T22:18:08.933Z,109.37
2019-03-21T22:20:39.933Z,115.93
2019-03-21T22:23:11.076Z,107.57
2019-03-21T22:25:42.085Z,113.40
2019-03-21T22:28:13.110Z,101.63
2019-03-21T22:30:44.161Z,102.87
2019-03-21T22:33:15.204Z,108.00
2019-03-21T22:35:46.230Z,115.23
2019-03-21T22:38:17.248Z,113.77
2019-03-21T22:40:48.351Z,121.83
2019-03-21T22:43:19.346Z,117.33
2019-03-21T22:45:50.349Z,134.00
2019-03-21T22:48:21.314Z,140.20
2019-03-21T22:50:52.310Z,125.63
2019-03-21T22:53:23.372Z,114.50
2019-03-21T22:55:54.494Z,129.07
2019-03-21T22:58:31.696Z,131.47
2019-03-21T23:00:58.112Z,119.97
2019-03-21T23:03:30.758Z,119.53
2019-03-21T23:06:01.812Z,117.67
2019-03-21T23:08:32.816Z,130.23
2019-03-21T23:11:03.956Z,120.30
2019-03-21T23:13:35.097Z,121.70
2019-03-21T23:16:06.120Z,129.40
2019-03-21T23:18:37.126Z,113.73
2019-03-21T23:21:08.196Z,111.50
2019-03-21T23:23:39.262Z,96.27
2019-03-21T23:26:10.464Z,102.20
2019-03-21T23:28:41.542Z,100.70
2019-03-21T23:31:12.674Z,93.93
2019-03-21T23:33:43.725Z,106.17
2019-03-21T23:36:15.812Z,108.63
2019-03-21T23:38:46.991Z,106.93
2019-03-21T23:41:18.073Z,112.53
2019-03-21T23:43:49.096Z,103.37
2019-03-21T23:46:20.159Z,101.67
2019-03-21T23:48:51.177Z,103.90
2019-03-21T23:51:22.166Z,103.23
2019-03-21T23:53:53.180Z,113.50
2019-03-21T23:56:24.261Z,116.67
2019-03-21T23:58:55.537Z,115.33
